»·PEaware :: ACA128 KLAS-CYVR

ACA128 :: KLAS-CYVR

FLIGHT INFORMATION

Flight Status: Arrived
Operator:
Air Canada
More flights by this operator :: More flights under this callsign
Pilot: Konrad W. (32064)
Aircraft: AIRBUS A320
(A320)
More flights by this aircraft type
Origin: KLAS McCarran Intl
United States
Destination: CYVR Vancouver Intl
Canada
More flights between these airports :: More routes between these airports
Route: SHEAD1 OAL J92 FMG J5 TAOMA PAE GRIZZ6
File this flight plan on PilotEdge
Remarks:
Altitude:
(Current/Filed)
38,000ft
Speed:
(Current/Filed)
430kts
Departed: 03-Dec-20 09:00 PM
Arrived: 03-Dec-20 11:26 PM
Distance/Time
Traveled:
862nm/2:26
Distance/Time
To Go:
Arrived

Flight Plot

Page will automatically refresh every two minutes.

Flight plan parsing failed; only flown route is shown


Map Options




Map Legend


Flown Route
Filed Route
Departure Airport
Arrival Airport
Navaid (VOR, NDB)
Fix

Horizontal Profiles

Position Reports

Time Latitude Longitude Heading Altitude Ground
Speed
03-Dec-20 20:30 36.082356 -115.153130 27 2136ft 0kts
03-Dec-20 20:31 36.082356 -115.153130 27 2136ft 0kts
03-Dec-20 20:32 36.082356 -115.153130 27 2136ft 0kts
03-Dec-20 20:33 36.082356 -115.153130 27 2136ft 0kts
03-Dec-20 20:34 36.082356 -115.153130 27 2136ft 0kts
03-Dec-20 20:35 36.082356 -115.153130 27 2136ft 0kts
03-Dec-20 20:36 36.082356 -115.153130 27 2136ft 0kts
03-Dec-20 20:37 36.082356 -115.153130 27 2136ft 0kts
03-Dec-20 20:38 36.082356 -115.153130 27 2136ft 0kts
03-Dec-20 20:39 36.082356 -115.153130 27 2136ft 0kts
03-Dec-20 20:40 36.082356 -115.153130 27 2136ft 0kts
03-Dec-20 20:41 36.082356 -115.153130 27 2136ft 0kts
03-Dec-20 20:42 36.082356 -115.153130 27 2136ft 0kts
03-Dec-20 20:43 36.082356 -115.153130 27 2136ft 0kts
03-Dec-20 20:44 36.082369 -115.153122 27 2136ft 0kts
03-Dec-20 20:45 36.082354 -115.153132 27 2136ft 0kts
03-Dec-20 20:46 36.082327 -115.153149 27 2136ft 0kts
03-Dec-20 20:47 36.082321 -115.153152 27 2136ft 0kts
03-Dec-20 20:48 36.082372 -115.153048 77 2136ft 0kts
03-Dec-20 20:49 36.081917 -115.152724 118 2138ft 4kts
03-Dec-20 20:50 36.081908 -115.152686 103 2138ft 0kts
03-Dec-20 20:51 36.081134 -115.153108 274 2144ft 10kts
03-Dec-20 20:52 36.083679 -115.156142 329 2137ft 12kts
03-Dec-20 20:53 36.087082 -115.157850 10 2136ft 21kts
03-Dec-20 20:54 36.094165 -115.153874 25 2103ft 23kts
03-Dec-20 20:55 36.097996 -115.152503 294 2080ft 0kts
03-Dec-20 20:56 36.097996 -115.152503 294 2080ft 0kts
03-Dec-20 20:57 36.097996 -115.152503 294 2080ft 0kts
03-Dec-20 20:58 36.097996 -115.152503 294 2080ft 0kts
03-Dec-20 20:59 36.093529 -115.156450 204 2106ft 83kts
03-Dec-20 21:00 36.046222 -115.183390 203 3087ft 253kts
03-Dec-20 21:01 35.999258 -115.236027 241 4996ft 236kts
03-Dec-20 21:02 35.965021 -115.307661 231 6855ft 246kts
03-Dec-20 21:03 35.914288 -115.370388 225 8801ft 269kts
03-Dec-20 21:04 35.887073 -115.451307 267 9983ft 266kts
03-Dec-20 21:05 35.888687 -115.545959 273 11032ft 305kts
03-Dec-20 21:06 35.890606 -115.654817 272 12905ft 328kts
03-Dec-20 21:07 35.892530 -115.771934 273 14921ft 347kts
03-Dec-20 21:08 35.894497 -115.892267 273 16924ft 355kts
03-Dec-20 21:09 35.926267 -116.002695 312 18959ft 352kts
03-Dec-20 21:10 35.997141 -116.087495 321 20940ft 361kts
03-Dec-20 21:11 36.071720 -116.173599 323 22906ft 374kts
03-Dec-20 21:12 36.148287 -116.262064 324 24867ft 380kts
03-Dec-20 21:13 36.225287 -116.351239 325 26869ft 380kts
03-Dec-20 21:14 36.301831 -116.440205 325 28898ft 375kts
03-Dec-20 21:15 36.377050 -116.527849 325 30837ft 370kts
03-Dec-20 21:16 36.452039 -116.615515 323 32442ft 374kts
03-Dec-20 21:17 36.527931 -116.704458 323 33674ft 378kts
03-Dec-20 21:18 36.610641 -116.783564 334 34695ft 377kts
03-Dec-20 21:19 36.700785 -116.851703 333 35623ft 384kts
03-Dec-20 21:20 36.792525 -116.921636 333 36608ft 389kts
03-Dec-20 21:21 36.884147 -116.991621 333 37732ft 380kts
03-Dec-20 21:22 36.974516 -117.060776 332 38498ft 385kts
03-Dec-20 21:23 37.068280 -117.132785 332 38581ft 409kts
03-Dec-20 21:24 37.164973 -117.207295 332 38575ft 409kts
03-Dec-20 21:25 37.265072 -117.284613 331 38582ft 434kts
03-Dec-20 21:26 37.369958 -117.356580 336 38578ft 427kts
03-Dec-20 21:27 37.476212 -117.425502 335 38582ft 432kts
03-Dec-20 21:28 37.582716 -117.494767 335 38578ft 432kts
03-Dec-20 21:29 37.689588 -117.564493 335 38578ft 434kts
03-Dec-20 21:30 37.796733 -117.634614 335 38578ft 437kts
03-Dec-20 21:31 37.904443 -117.705353 334 38582ft 437kts
03-Dec-20 21:32 38.010204 -117.781659 325 38579ft 442kts
03-Dec-20 21:33 38.100850 -117.887614 318 38566ft 443kts
03-Dec-20 21:34 38.190432 -117.995182 318 38572ft 445kts
03-Dec-20 21:35 38.279827 -118.103102 318 38538ft 446kts
03-Dec-20 21:36 38.369390 -118.211611 317 38486ft 444kts
03-Dec-20 21:37 38.458844 -118.320385 317 38473ft 446kts
03-Dec-20 21:38 38.548147 -118.429376 317 38482ft 446kts
03-Dec-20 21:39 38.637417 -118.538707 317 38474ft 446kts
03-Dec-20 21:40 38.726702 -118.648462 317 38476ft 446kts
03-Dec-20 21:41 38.816014 -118.758661 316 38479ft 446kts
03-Dec-20 21:42 38.905152 -118.869027 316 38485ft 447kts
03-Dec-20 21:43 38.994140 -118.979632 316 38500ft 446kts
03-Dec-20 21:44 39.083098 -119.090587 316 38508ft 447kts
03-Dec-20 21:45 39.171992 -119.201862 315 38504ft 447kts
03-Dec-20 21:46 39.260981 -119.313694 315 38500ft 447kts
03-Dec-20 21:48 39.349772 -119.425742 315 38490ft 449kts
03-Dec-20 21:49 39.438461 -119.538057 315 38463ft 448kts
03-Dec-20 21:50 39.530666 -119.646444 331 38467ft 450kts
03-Dec-20 21:51 39.650551 -119.688661 348 38457ft 451kts
03-Dec-20 21:52 39.772829 -119.722634 347 38482ft 451kts
03-Dec-20 21:53 39.895178 -119.756535 347 38508ft 452kts
03-Dec-20 21:54 40.017369 -119.790492 347 38514ft 452kts
03-Dec-20 21:55 40.140209 -119.824760 347 38514ft 451kts
03-Dec-20 21:56 40.262907 -119.859111 347 38522ft 453kts
03-Dec-20 21:57 40.385537 -119.893577 347 38528ft 453kts
03-Dec-20 21:58 40.508877 -119.928370 347 38494ft 454kts
03-Dec-20 21:59 40.631893 -119.963200 347 38528ft 456kts
03-Dec-20 22:00 40.755791 -119.998417 347 38494ft 456kts
03-Dec-20 22:01 40.880051 -120.033884 347 38519ft 460kts
03-Dec-20 22:02 41.004613 -120.069605 347 38516ft 459kts
03-Dec-20 22:03 41.129270 -120.105495 347 38515ft 461kts
03-Dec-20 22:03 41.233651 -120.135622 346 38506ft 462kts
03-Dec-20 22:05 41.379881 -120.178009 347 38450ft 462kts
03-Dec-20 22:06 41.505259 -120.214505 346 38450ft 463kts
03-Dec-20 22:06 41.609870 -120.245053 346 38456ft 463kts
03-Dec-20 22:08 41.756283 -120.287999 346 38451ft 463kts
03-Dec-20 22:08 41.861347 -120.318930 346 38447ft 464kts
03-Dec-20 22:09 41.987119 -120.356109 346 38448ft 465kts
03-Dec-20 22:10 42.113096 -120.393487 346 38449ft 466kts
03-Dec-20 22:11 42.239765 -120.431232 346 38449ft 466kts
03-Dec-20 22:12 42.366236 -120.469071 346 38453ft 468kts
03-Dec-20 22:13 42.492834 -120.506921 345 38449ft 468kts
03-Dec-20 22:14 42.618499 -120.549173 344 38451ft 468kts
03-Dec-20 22:15 42.744569 -120.591541 344 38460ft 468kts
03-Dec-20 22:16 42.870645 -120.634087 344 38466ft 467kts
03-Dec-20 22:17 42.996350 -120.676698 344 38469ft 468kts
03-Dec-20 22:18 43.122081 -120.719484 344 38473ft 467kts
03-Dec-20 22:19 43.248078 -120.762553 344 38474ft 468kts
03-Dec-20 22:20 43.373960 -120.805767 344 38477ft 468kts
03-Dec-20 22:21 43.500143 -120.849261 344 38476ft 468kts
03-Dec-20 22:22 43.625758 -120.892762 344 38469ft 468kts
03-Dec-20 22:23 43.751712 -120.936552 344 38456ft 468kts
03-Dec-20 22:24 43.877735 -120.980570 344 38448ft 466kts
03-Dec-20 22:25 44.003075 -121.024532 344 38444ft 467kts
03-Dec-20 22:26 44.128066 -121.068575 344 38484ft 466kts
03-Dec-20 22:27 44.253180 -121.112836 344 38487ft 464kts
03-Dec-20 22:28 44.377441 -121.157006 344 38487ft 464kts
03-Dec-20 22:29 44.502048 -121.201488 344 38468ft 464kts
03-Dec-20 22:30 44.626256 -121.246019 344 38465ft 463kts
03-Dec-20 22:31 44.750759 -121.290867 343 38463ft 463kts
03-Dec-20 22:32 44.875195 -121.335876 344 38459ft 463kts
03-Dec-20 22:33 44.999575 -121.381069 343 38476ft 463kts
03-Dec-20 22:35 45.144830 -121.434111 343 38472ft 463kts
03-Dec-20 22:35 45.248368 -121.472093 343 38477ft 464kts
03-Dec-20 22:36 45.372394 -121.517764 343 38475ft 462kts
03-Dec-20 22:37 45.496611 -121.563727 343 38482ft 464kts
03-Dec-20 22:38 45.620770 -121.609879 343 38483ft 463kts
03-Dec-20 22:39 45.744928 -121.656234 343 38474ft 465kts
03-Dec-20 22:40 45.869131 -121.702834 343 38484ft 464kts
03-Dec-20 22:41 45.993409 -121.749654 343 38471ft 464kts
03-Dec-20 22:42 46.117476 -121.796634 343 38453ft 464kts
03-Dec-20 22:43 46.242094 -121.844032 343 38446ft 466kts
03-Dec-20 22:44 46.366487 -121.891572 343 38416ft 464kts
03-Dec-20 22:45 46.490651 -121.939244 343 38403ft 465kts
03-Dec-20 22:46 46.614845 -121.987145 343 38389ft 464kts
03-Dec-20 22:47 46.739168 -122.035380 342 38365ft 463kts
03-Dec-20 22:48 46.863313 -122.083712 342 38371ft 462kts
03-Dec-20 22:49 46.989638 -122.117952 352 38495ft 471kts
03-Dec-20 22:50 47.119762 -122.139788 351 37865ft 475kts
03-Dec-20 22:51 47.247143 -122.161499 351 36276ft 457kts
03-Dec-20 22:52 47.372096 -122.182875 351 34682ft 448kts
03-Dec-20 22:53 47.492874 -122.203632 351 33109ft 439kts
03-Dec-20 22:54 47.612189 -122.224247 351 31512ft 431kts
03-Dec-20 22:55 47.728872 -122.244479 350 29935ft 421kts
03-Dec-20 22:56 47.843050 -122.264375 350 28303ft 411kts
03-Dec-20 22:57 47.957342 -122.288298 345 26172ft 438kts
03-Dec-20 22:58 48.072493 -122.321940 346 24183ft 412kts
03-Dec-20 22:59 48.181101 -122.353457 346 22217ft 395kts
03-Dec-20 23:00 48.286896 -122.384287 346 20179ft 384kts
03-Dec-20 23:01 48.389615 -122.414343 346 17985ft 371kts
03-Dec-20 23:02 48.488514 -122.443423 346 15803ft 357kts
03-Dec-20 23:03 48.584338 -122.471741 346 13714ft 347kts
03-Dec-20 23:04 48.676309 -122.499652 340 11641ft 331kts
03-Dec-20 23:05 48.748597 -122.576420 314 10549ft 318kts
03-Dec-20 23:06 48.806576 -122.674202 307 10494ft 318kts
03-Dec-20 23:07 48.862995 -122.772487 307 10027ft 304kts
03-Dec-20 23:08 48.918528 -122.869594 307 9970ft 306kts
03-Dec-20 23:09 48.970715 -122.961233 307 9512ft 283kts
03-Dec-20 23:10 49.019356 -123.052295 289 7802ft 271kts
03-Dec-20 23:11 48.996052 -123.148248 218 6204ft 258kts
03-Dec-20 23:12 48.966386 -123.237348 287 4589ft 263kts
03-Dec-20 23:13 49.016272 -123.311788 326 3214ft 241kts
03-Dec-20 23:14 49.065869 -123.368169 318 3011ft 219kts
03-Dec-20 23:15 49.111560 -123.429633 317 3002ft 219kts
03-Dec-20 23:16 49.155972 -123.489817 323 3000ft 210kts
03-Dec-20 23:17 49.207383 -123.519234 318 3008ft 201kts
03-Dec-20 23:18 49.255067 -123.549447 30 3012ft 199kts
03-Dec-20 23:19 49.257414 -123.484873 152 2464ft 185kts
03-Dec-20 23:20 49.218383 -123.442378 118 2959ft 159kts
03-Dec-20 23:21 49.208865 -123.376520 99 2233ft 159kts
03-Dec-20 23:22 49.201740 -123.310777 99 1395ft 157kts
03-Dec-20 23:23 49.194546 -123.246989 100 588ft 144kts
03-Dec-20 23:24 49.188371 -123.192754 99 23ft 93kts
03-Dec-20 23:25 49.189258 -123.180808 10 22ft 5kts
03-Dec-20 23:26 49.191041 -123.180984 322 22ft 1kts
03-Dec-20 23:27 49.191783 -123.180983 9 22ft 0kts
03-Dec-20 23:28 49.191783 -123.180983 9 22ft 0kts
03-Dec-20 23:29 49.191783 -123.180983 9 22ft 0kts
03-Dec-20 23:30 49.191783 -123.180983 9 22ft 0kts
03-Dec-20 23:31 49.191783 -123.180983 9 22ft 0kts
03-Dec-20 23:32 49.191783 -123.180983 9 22ft 0kts
03-Dec-20 23:33 49.191783 -123.180983 9 22ft 0kts

Navigation Log

Ident Type
Flight plan parsing failed, navigation log unavailable